sensor_id;sensor_type;location;lat;lon;timestamp;P1;durP1;ratioP1;P2;durP2;ratioP2
17842;SDS011;69286;48.222;16.332;2023-06-24T00:00:54;1.40;;;1.30;;
17842;SDS011;69286;48.222;16.332;2023-06-24T00:03:22;1.57;;;1.40;;
17842;SDS011;69286;48.222;16.332;2023-06-24T00:05:50;3.40;;;1.40;;
17842;SDS011;69286;48.222;16.332;2023-06-24T00:08:18;1.47;;;1.37;;
17842;SDS011;69286;48.222;16.332;2023-06-24T00:10:45;1.97;;;1.57;;
17842;SDS011;69286;48.222;16.332;2023-06-24T00:13:12;3.10;;;1.60;;
17842;SDS011;69286;48.222;16.332;2023-06-24T00:15:39;1.73;;;1.40;;
17842;SDS011;69286;48.222;16.332;2023-06-24T00:18:08;1.57;;;1.47;;
17842;SDS011;69286;48.222;16.332;2023-06-24T00:20:35;1.37;;;1.27;;
17842;SDS011;69286;48.222;16.332;2023-06-24T00:23:03;1.50;;;1.40;;
17842;SDS011;69286;48.222;16.332;2023-06-24T00:25:31;3.93;;;1.43;;
17842;SDS011;69286;48.222;16.332;2023-06-24T00:27:59;2.07;;;1.40;;
17842;SDS011;69286;48.222;16.332;2023-06-24T00:30:26;5.23;;;1.40;;
17842;SDS011;69286;48.222;16.332;2023-06-24T00:32:53;4.20;;;1.40;;
17842;SDS011;69286;48.222;16.332;2023-06-24T00:35:20;1.70;;;1.50;;
17842;SDS011;69286;48.222;16.332;2023-06-24T00:37:47;1.47;;;1.30;;
17842;SDS011;69286;48.222;16.332;2023-06-24T00:40:16;2.27;;;1.40;;
17842;SDS011;69286;48.222;16.332;2023-06-24T00:42:43;2.43;;;1.50;;
17842;SDS011;69286;48.222;16.332;2023-06-24T00:45:11;3.60;;;1.53;;
17842;SDS011;69286;48.222;16.332;2023-06-24T00:47:39;3.77;;;1.70;;
17842;SDS011;69286;48.222;16.332;2023-06-24T00:50:07;3.40;;;1.60;;
17842;SDS011;69286;48.222;16.332;2023-06-24T00:52:37;5.10;;;1.57;;
17842;SDS011;69286;48.222;16.332;2023-06-24T00:55:07;2.13;;;1.50;;
17842;SDS011;69286;48.222;16.332;2023-06-24T00:57:38;4.13;;;1.80;;
17842;SDS011;69286;48.222;16.332;2023-06-24T01:00:06;1.60;;;1.50;;
17842;SDS011;69286;48.222;16.332;2023-06-24T01:02:35;1.50;;;1.40;;
17842;SDS011;69286;48.222;16.332;2023-06-24T01:05:02;6.67;;;1.53;;
17842;SDS011;69286;48.222;16.332;2023-06-24T01:07:31;3.57;;;1.40;;
17842;SDS011;69286;48.222;16.332;2023-06-24T01:10:00;1.60;;;1.50;;
17842;SDS011;69286;48.222;16.332;2023-06-24T01:12:29;1.70;;;1.60;;
17842;SDS011;69286;48.222;16.332;2023-06-24T01:14:58;1.60;;;1.50;;
17842;SDS011;69286;48.222;16.332;2023-06-24T01:17:27;2.40;;;1.80;;
17842;SDS011;69286;48.222;16.332;2023-06-24T01:20:02;4.07;;;1.50;;
17842;SDS011;69286;48.222;16.332;2023-06-24T01:22:55;2.60;;;1.60;;
17842;SDS011;69286;48.222;16.332;2023-06-24T01:25:41;2.27;;;1.90;;
17842;SDS011;69286;48.222;16.332;2023-06-24T01:28:30;1.70;;;1.60;;
17842;SDS011;69286;48.222;16.332;2023-06-24T01:34:06;2.23;;;2.03;;
17842;SDS011;69286;48.222;16.332;2023-06-24T01:36:42;2.47;;;2.10;;
17842;SDS011;69286;48.222;16.332;2023-06-24T01:39:13;6.17;;;1.80;;
17842;SDS011;69286;48.222;16.332;2023-06-24T01:41:46;1.90;;;1.80;;
17842;SDS011;69286;48.222;16.332;2023-06-24T01:44:17;2.43;;;2.23;;
17842;SDS011;69286;48.222;16.332;2023-06-24T01:46:46;3.77;;;1.80;;
17842;SDS011;69286;48.222;16.332;2023-06-24T01:49:17;4.73;;;2.30;;
17842;SDS011;69286;48.222;16.332;2023-06-24T01:51:47;2.13;;;1.90;;
17842;SDS011;69286;48.222;16.332;2023-06-24T01:54:15;2.67;;;2.10;;
17842;SDS011;69286;48.222;16.332;2023-06-24T01:56:45;2.43;;;1.90;;
17842;SDS011;69286;48.222;16.332;2023-06-24T01:59:14;2.70;;;2.07;;
17842;SDS011;69286;48.222;16.332;2023-06-24T02:01:43;1.90;;;1.80;;
17842;SDS011;69286;48.222;16.332;2023-06-24T02:04:13;3.40;;;1.83;;
17842;SDS011;69286;48.222;16.332;2023-06-24T02:06:42;3.93;;;1.90;;
17842;SDS011;69286;48.222;16.332;2023-06-24T02:09:10;2.67;;;1.83;;
17842;SDS011;69286;48.222;16.332;2023-06-24T02:11:38;2.60;;;2.30;;
17842;SDS011;69286;48.222;16.332;2023-06-24T02:14:07;2.33;;;2.00;;
17842;SDS011;69286;48.222;16.332;2023-06-24T02:16:35;1.87;;;1.77;;
17842;SDS011;69286;48.222;16.332;2023-06-24T02:19:09;2.40;;;2.10;;
17842;SDS011;69286;48.222;16.332;2023-06-24T02:21:37;1.87;;;1.77;;
17842;SDS011;69286;48.222;16.332;2023-06-24T02:24:06;4.30;;;2.07;;
17842;SDS011;69286;48.222;16.332;2023-06-24T02:26:34;1.90;;;1.70;;
17842;SDS011;69286;48.222;16.332;2023-06-24T02:29:05;4.53;;;2.10;;
17842;SDS011;69286;48.222;16.332;2023-06-24T02:31:34;3.53;;;2.20;;
17842;SDS011;69286;48.222;16.332;2023-06-24T02:34:01;1.93;;;1.70;;
17842;SDS011;69286;48.222;16.332;2023-06-24T02:36:30;2.20;;;2.00;;
17842;SDS011;69286;48.222;16.332;2023-06-24T02:38:57;1.80;;;1.70;;
17842;SDS011;69286;48.222;16.332;2023-06-24T02:41:24;3.03;;;1.83;;
17842;SDS011;69286;48.222;16.332;2023-06-24T02:43:51;2.37;;;2.00;;
17842;SDS011;69286;48.222;16.332;2023-06-24T02:46:18;2.10;;;1.97;;
17842;SDS011;69286;48.222;16.332;2023-06-24T02:48:47;4.67;;;2.13;;
17842;SDS011;69286;48.222;16.332;2023-06-24T02:51:15;2.10;;;2.00;;
17842;SDS011;69286;48.222;16.332;2023-06-24T02:53:44;1.93;;;1.80;;
17842;SDS011;69286;48.222;16.332;2023-06-24T02:56:12;5.53;;;2.00;;
17842;SDS011;69286;48.222;16.332;2023-06-24T02:58:45;4.23;;;2.40;;
17842;SDS011;69286;48.222;16.332;2023-06-24T03:01:13;2.20;;;2.00;;
17842;SDS011;69286;48.222;16.332;2023-06-24T03:03:41;6.53;;;2.30;;
17842;SDS011;69286;48.222;16.332;2023-06-24T03:06:14;3.40;;;1.87;;
17842;SDS011;69286;48.222;16.332;2023-06-24T03:08:42;4.07;;;2.37;;
17842;SDS011;69286;48.222;16.332;2023-06-24T03:11:12;2.70;;;1.90;;
17842;SDS011;69286;48.222;16.332;2023-06-24T03:13:39;2.10;;;1.90;;
17842;SDS011;69286;48.222;16.332;2023-06-24T03:16:06;1.80;;;1.70;;
17842;SDS011;69286;48.222;16.332;2023-06-24T03:18:37;2.40;;;1.87;;
17842;SDS011;69286;48.222;16.332;2023-06-24T03:21:04;2.03;;;1.83;;
17842;SDS011;69286;48.222;16.332;2023-06-24T03:23:32;2.00;;;1.80;;
17842;SDS011;69286;48.222;16.332;2023-06-24T03:26:00;1.80;;;1.70;;
17842;SDS011;69286;48.222;16.332;2023-06-24T03:28:28;3.63;;;1.70;;
17842;SDS011;69286;48.222;16.332;2023-06-24T03:30:56;2.20;;;2.10;;
17842;SDS011;69286;48.222;16.332;2023-06-24T03:33:23;1.90;;;1.80;;
17842;SDS011;69286;48.222;16.332;2023-06-24T03:35:51;2.63;;;1.90;;
17842;SDS011;69286;48.222;16.332;2023-06-24T03:38:18;4.10;;;2.17;;
17842;SDS011;69286;48.222;16.332;2023-06-24T03:40:46;1.70;;;1.60;;
17842;SDS011;69286;48.222;16.332;2023-06-24T03:43:14;1.77;;;1.67;;
17842;SDS011;69286;48.222;16.332;2023-06-24T03:45:41;1.60;;;1.50;;
17842;SDS011;69286;48.222;16.332;2023-06-24T03:48:08;2.57;;;1.60;;
17842;SDS011;69286;48.222;16.332;2023-06-24T03:50:35;1.53;;;1.40;;
17842;SDS011;69286;48.222;16.332;2023-06-24T03:53:03;1.53;;;1.43;;
17842;SDS011;69286;48.222;16.332;2023-06-24T03:55:30;2.43;;;1.23;;
17842;SDS011;69286;48.222;16.332;2023-06-24T03:57:57;1.50;;;1.40;;
17842;SDS011;69286;48.222;16.332;2023-06-24T04:00:25;1.60;;;1.30;;
17842;SDS011;69286;48.222;16.332;2023-06-24T04:02:52;1.20;;;1.20;;
17842;SDS011;69286;48.222;16.332;2023-06-24T04:05:20;1.40;;;1.30;;
17842;SDS011;69286;48.222;16.332;2023-06-24T04:07:47;1.30;;;1.20;;
17842;SDS011;69286;48.222;16.332;2023-06-24T04:10:18;1.40;;;1.27;;
17842;SDS011;69286;48.222;16.332;2023-06-24T04:12:45;1.40;;;1.37;;
17842;SDS011;69286;48.222;16.332;2023-06-24T04:15:12;2.47;;;1.20;;
17842;SDS011;69286;48.222;16.332;2023-06-24T04:17:41;0.90;;;0.90;;
17842;SDS011;69286;48.222;16.332;2023-06-24T04:20:08;0.93;;;0.93;;
17842;SDS011;69286;48.222;16.332;2023-06-24T04:22:36;2.80;;;1.97;;
17842;SDS011;69286;48.222;16.332;2023-06-24T04:25:03;1.10;;;1.10;;
17842;SDS011;69286;48.222;16.332;2023-06-24T04:27:31;1.00;;;1.00;;
17842;SDS011;69286;48.222;16.332;2023-06-24T04:29:59;1.20;;;1.10;;
17842;SDS011;69286;48.222;16.332;2023-06-24T04:32:26;1.40;;;1.30;;
17842;SDS011;69286;48.222;16.332;2023-06-24T04:34:54;0.90;;;0.90;;
17842;SDS011;69286;48.222;16.332;2023-06-24T04:37:21;0.97;;;0.97;;
17842;SDS011;69286;48.222;16.332;2023-06-24T04:39:48;1.10;;;1.00;;
17842;SDS011;69286;48.222;16.332;2023-06-24T04:42:16;0.80;;;0.80;;
17842;SDS011;69286;48.222;16.332;2023-06-24T04:44:43;0.90;;;0.90;;
17842;SDS011;69286;48.222;16.332;2023-06-24T04:47:10;0.90;;;0.90;;
17842;SDS011;69286;48.222;16.332;2023-06-24T04:49:38;1.10;;;1.00;;
17842;SDS011;69286;48.222;16.332;2023-06-24T04:52:07;0.90;;;0.90;;
17842;SDS011;69286;48.222;16.332;2023-06-24T04:54:34;0.93;;;0.93;;
17842;SDS011;69286;48.222;16.332;2023-06-24T04:57:01;1.00;;;1.00;;
17842;SDS011;69286;48.222;16.332;2023-06-24T04:59:28;0.80;;;0.80;;
17842;SDS011;69286;48.222;16.332;2023-06-24T05:01:55;0.90;;;0.90;;
17842;SDS011;69286;48.222;16.332;2023-06-24T05:04:22;0.90;;;0.90;;
17842;SDS011;69286;48.222;16.332;2023-06-24T05:06:49;0.90;;;0.90;;
17842;SDS011;69286;48.222;16.332;2023-06-24T05:09:17;0.90;;;0.90;;
17842;SDS011;69286;48.222;16.332;2023-06-24T05:11:44;0.80;;;0.80;;
17842;SDS011;69286;48.222;16.332;2023-06-24T05:14:11;0.80;;;0.80;;
17842;SDS011;69286;48.222;16.332;2023-06-24T05:16:38;1.80;;;0.90;;
17842;SDS011;69286;48.222;16.332;2023-06-24T05:19:05;1.97;;;0.90;;
17842;SDS011;69286;48.222;16.332;2023-06-24T05:21:32;1.00;;;1.00;;
17842;SDS011;69286;48.222;16.332;2023-06-24T05:23:59;0.70;;;0.70;;
17842;SDS011;69286;48.222;16.332;2023-06-24T05:26:28;1.00;;;0.90;;
17842;SDS011;69286;48.222;16.332;2023-06-24T05:28:55;0.90;;;0.90;;
17842;SDS011;69286;48.222;16.332;2023-06-24T05:31:22;0.83;;;0.83;;
17842;SDS011;69286;48.222;16.332;2023-06-24T05:33:49;1.07;;;1.07;;
17842;SDS011;69286;48.222;16.332;2023-06-24T05:36:16;0.97;;;0.80;;
17842;SDS011;69286;48.222;16.332;2023-06-24T05:38:43;1.57;;;1.10;;
17842;SDS011;69286;48.222;16.332;2023-06-24T05:41:09;1.00;;;1.00;;
17842;SDS011;69286;48.222;16.332;2023-06-24T05:43:38;2.23;;;0.90;;
17842;SDS011;69286;48.222;16.332;2023-06-24T05:46:05;1.47;;;0.80;;
17842;SDS011;69286;48.222;16.332;2023-06-24T05:48:32;0.77;;;0.77;;
17842;SDS011;69286;48.222;16.332;2023-06-24T05:50:59;1.00;;;1.00;;
17842;SDS011;69286;48.222;16.332;2023-06-24T05:53:26;1.27;;;0.90;;
17842;SDS011;69286;48.222;16.332;2023-06-24T05:55:53;3.10;;;0.80;;
17842;SDS011;69286;48.222;16.332;2023-06-24T05:58:20;0.80;;;0.80;;
17842;SDS011;69286;48.222;16.332;2023-06-24T06:00:48;0.83;;;0.83;;
17842;SDS011;69286;48.222;16.332;2023-06-24T06:03:15;2.33;;;0.80;;
17842;SDS011;69286;48.222;16.332;2023-06-24T06:05:42;0.63;;;0.63;;
17842;SDS011;69286;48.222;16.332;2023-06-24T06:08:09;0.80;;;0.80;;
17842;SDS011;69286;48.222;16.332;2023-06-24T06:10:36;0.90;;;0.90;;
17842;SDS011;69286;48.222;16.332;2023-06-24T06:13:03;0.77;;;0.77;;
17842;SDS011;69286;48.222;16.332;2023-06-24T06:15:30;0.70;;;0.70;;
17842;SDS011;69286;48.222;16.332;2023-06-24T06:17:59;0.90;;;0.90;;
17842;SDS011;69286;48.222;16.332;2023-06-24T06:20:26;1.27;;;1.20;;
17842;SDS011;69286;48.222;16.332;2023-06-24T06:22:53;0.70;;;0.70;;
17842;SDS011;69286;48.222;16.332;2023-06-24T06:25:20;0.70;;;0.70;;
17842;SDS011;69286;48.222;16.332;2023-06-24T06:27:47;0.70;;;0.70;;
17842;SDS011;69286;48.222;16.332;2023-06-24T06:30:14;1.07;;;0.70;;
17842;SDS011;69286;48.222;16.332;2023-06-24T06:32:41;1.13;;;0.70;;
17842;SDS011;69286;48.222;16.332;2023-06-24T06:35:10;0.63;;;0.63;;
17842;SDS011;69286;48.222;16.332;2023-06-24T06:37:37;0.70;;;0.70;;
17842;SDS011;69286;48.222;16.332;2023-06-24T06:40:04;0.63;;;0.63;;
17842;SDS011;69286;48.222;16.332;2023-06-24T06:42:32;1.03;;;0.80;;
17842;SDS011;69286;48.222;16.332;2023-06-24T06:44:59;0.80;;;0.80;;
17842;SDS011;69286;48.222;16.332;2023-06-24T06:47:26;0.70;;;0.70;;
17842;SDS011;69286;48.222;16.332;2023-06-24T06:49:53;0.77;;;0.77;;
17842;SDS011;69286;48.222;16.332;2023-06-24T06:52:21;0.70;;;0.70;;
17842;SDS011;69286;48.222;16.332;2023-06-24T06:54:48;0.70;;;0.70;;
17842;SDS011;69286;48.222;16.332;2023-06-24T06:57:15;0.70;;;0.70;;
17842;SDS011;69286;48.222;16.332;2023-06-24T06:59:42;0.70;;;0.70;;
17842;SDS011;69286;48.222;16.332;2023-06-24T07:02:09;2.23;;;0.73;;
17842;SDS011;69286;48.222;16.332;2023-06-24T07:04:36;0.90;;;0.90;;
17842;SDS011;69286;48.222;16.332;2023-06-24T07:07:04;1.00;;;1.00;;
17842;SDS011;69286;48.222;16.332;2023-06-24T07:09:32;0.97;;;0.97;;
17842;SDS011;69286;48.222;16.332;2023-06-24T07:11:59;1.20;;;1.10;;
17842;SDS011;69286;48.222;16.332;2023-06-24T07:14:26;2.40;;;1.17;;
17842;SDS011;69286;48.222;16.332;2023-06-24T07:16:53;1.10;;;1.10;;
17842;SDS011;69286;48.222;16.332;2023-06-24T07:19:21;1.00;;;1.00;;
17842;SDS011;69286;48.222;16.332;2023-06-24T07:21:48;1.30;;;1.20;;
17842;SDS011;69286;48.222;16.332;2023-06-24T07:24:15;1.40;;;1.30;;
17842;SDS011;69286;48.222;16.332;2023-06-24T07:26:43;2.50;;;1.13;;
17842;SDS011;69286;48.222;16.332;2023-06-24T07:29:10;1.37;;;1.27;;
17842;SDS011;69286;48.222;16.332;2023-06-24T07:31:37;1.30;;;1.20;;
17842;SDS011;69286;48.222;16.332;2023-06-24T07:34:04;1.47;;;1.30;;
17842;SDS011;69286;48.222;16.332;2023-06-24T07:36:31;1.40;;;1.30;;
17842;SDS011;69286;48.222;16.332;2023-06-24T07:38:58;3.67;;;1.23;;
17842;SDS011;69286;48.222;16.332;2023-06-24T07:41:25;3.73;;;1.20;;
17842;SDS011;69286;48.222;16.332;2023-06-24T07:43:53;1.30;;;1.20;;
17842;SDS011;69286;48.222;16.332;2023-06-24T07:46:21;1.47;;;1.37;;
17842;SDS011;69286;48.222;16.332;2023-06-24T07:48:48;1.53;;;1.43;;
17842;SDS011;69286;48.222;16.332;2023-06-24T07:51:15;3.50;;;1.80;;
17842;SDS011;69286;48.222;16.332;2023-06-24T07:53:43;1.57;;;1.40;;
17842;SDS011;69286;48.222;16.332;2023-06-24T07:56:10;1.80;;;1.70;;
17842;SDS011;69286;48.222;16.332;2023-06-24T07:58:37;3.77;;;2.00;;
17842;SDS011;69286;48.222;16.332;2023-06-24T08:01:05;1.60;;;1.50;;
17842;SDS011;69286;48.222;16.332;2023-06-24T08:03:33;2.90;;;1.70;;
17842;SDS011;69286;48.222;16.332;2023-06-24T08:06:01;2.37;;;2.03;;
17842;SDS011;69286;48.222;16.332;2023-06-24T08:08:29;2.23;;;1.90;;
17842;SDS011;69286;48.222;16.332;2023-06-24T08:10:56;2.20;;;2.00;;
17842;SDS011;69286;48.222;16.332;2023-06-24T08:13:22;1.80;;;1.70;;
17842;SDS011;69286;48.222;16.332;2023-06-24T08:15:49;2.00;;;1.80;;
17842;SDS011;69286;48.222;16.332;2023-06-24T08:18:18;3.27;;;2.40;;
17842;SDS011;69286;48.222;16.332;2023-06-24T08:20:45;2.37;;;2.17;;
17842;SDS011;69286;48.222;16.332;2023-06-24T08:23:12;3.13;;;2.27;;
17842;SDS011;69286;48.222;16.332;2023-06-24T08:25:39;2.60;;;1.90;;
17842;SDS011;69286;48.222;16.332;2023-06-24T08:28:06;4.03;;;2.13;;
17842;SDS011;69286;48.222;16.332;2023-06-24T08:30:33;2.97;;;2.30;;
17842;SDS011;69286;48.222;16.332;2023-06-24T08:33:00;4.57;;;2.03;;
17842;SDS011;69286;48.222;16.332;2023-06-24T08:35:28;4.07;;;2.20;;
17842;SDS011;69286;48.222;16.332;2023-06-24T08:37:55;2.67;;;2.47;;
17842;SDS011;69286;48.222;16.332;2023-06-24T08:40:22;2.50;;;2.30;;
17842;SDS011;69286;48.222;16.332;2023-06-24T08:42:49;2.40;;;2.30;;
17842;SDS011;69286;48.222;16.332;2023-06-24T08:45:16;2.50;;;2.30;;
17842;SDS011;69286;48.222;16.332;2023-06-24T08:47:43;3.50;;;2.23;;
17842;SDS011;69286;48.222;16.332;2023-06-24T08:50:12;2.57;;;2.37;;
17842;SDS011;69286;48.222;16.332;2023-06-24T08:52:42;2.70;;;2.50;;
17842;SDS011;69286;48.222;16.332;2023-06-24T08:55:13;3.60;;;2.30;;
17842;SDS011;69286;48.222;16.332;2023-06-24T08:57:43;2.70;;;2.50;;
17842;SDS011;69286;48.222;16.332;2023-06-24T09:00:10;3.67;;;2.47;;
17842;SDS011;69286;48.222;16.332;2023-06-24T09:02:38;4.73;;;2.80;;
17842;SDS011;69286;48.222;16.332;2023-06-24T09:05:05;2.93;;;2.73;;
17842;SDS011;69286;48.222;16.332;2023-06-24T09:07:32;3.33;;;2.73;;
17842;SDS011;69286;48.222;16.332;2023-06-24T09:10:01;2.40;;;2.20;;
17842;SDS011;69286;48.222;16.332;2023-06-24T09:12:31;2.43;;;2.23;;
17842;SDS011;69286;48.222;16.332;2023-06-24T09:14:58;4.97;;;3.17;;
17842;SDS011;69286;48.222;16.332;2023-06-24T09:17:25;2.67;;;2.47;;
17842;SDS011;69286;48.222;16.332;2023-06-24T09:19:53;2.77;;;2.50;;
17842;SDS011;69286;48.222;16.332;2023-06-24T09:22:30;4.00;;;2.40;;
17842;SDS011;69286;48.222;16.332;2023-06-24T09:24:56;2.47;;;2.27;;
17842;SDS011;69286;48.222;16.332;2023-06-24T09:27:30;2.57;;;2.00;;
17842;SDS011;69286;48.222;16.332;2023-06-24T09:29:58;2.00;;;1.90;;
17842;SDS011;69286;48.222;16.332;2023-06-24T09:32:26;2.00;;;1.90;;
17842;SDS011;69286;48.222;16.332;2023-06-24T09:34:55;2.03;;;1.90;;
17842;SDS011;69286;48.222;16.332;2023-06-24T09:37:22;2.30;;;2.03;;
17842;SDS011;69286;48.222;16.332;2023-06-24T09:39:55;2.53;;;2.10;;
17842;SDS011;69286;48.222;16.332;2023-06-24T09:42:24;3.20;;;2.00;;
17842;SDS011;69286;48.222;16.332;2023-06-24T09:44:52;2.00;;;1.90;;
17842;SDS011;69286;48.222;16.332;2023-06-24T09:47:20;2.00;;;1.90;;
17842;SDS011;69286;48.222;16.332;2023-06-24T09:49:50;1.90;;;1.80;;
17842;SDS011;69286;48.222;16.332;2023-06-24T09:52:17;2.73;;;1.67;;
17842;SDS011;69286;48.222;16.332;2023-06-24T09:54:46;2.27;;;2.07;;
17842;SDS011;69286;48.222;16.332;2023-06-24T09:57:16;2.13;;;2.00;;
17842;SDS011;69286;48.222;16.332;2023-06-24T09:59:50;4.43;;;2.57;;
17842;SDS011;69286;48.222;16.332;2023-06-24T10:02:17;2.40;;;2.20;;
17842;SDS011;69286;48.222;16.332;2023-06-24T10:04:45;3.00;;;2.40;;
17842;SDS011;69286;48.222;16.332;2023-06-24T10:07:13;2.50;;;2.30;;
17842;SDS011;69286;48.222;16.332;2023-06-24T10:09:40;3.03;;;2.73;;
17842;SDS011;69286;48.222;16.332;2023-06-24T10:12:09;4.53;;;2.47;;
17842;SDS011;69286;48.222;16.332;2023-06-24T10:14:36;4.27;;;3.00;;
17842;SDS011;69286;48.222;16.332;2023-06-24T10:17:05;4.03;;;3.10;;
17842;SDS011;69286;48.222;16.332;2023-06-24T10:19:37;3.97;;;2.77;;
17842;SDS011;69286;48.222;16.332;2023-06-24T10:22:07;3.23;;;2.93;;
17842;SDS011;69286;48.222;16.332;2023-06-24T10:24:36;3.83;;;3.43;;
17842;SDS011;69286;48.222;16.332;2023-06-24T10:27:07;4.50;;;3.30;;
17842;SDS011;69286;48.222;16.332;2023-06-24T10:29:35;4.17;;;3.30;;
17842;SDS011;69286;48.222;16.332;2023-06-24T10:32:03;14.43;;;5.10;;
17842;SDS011;69286;48.222;16.332;2023-06-24T10:34:33;4.50;;;3.70;;
17842;SDS011;69286;48.222;16.332;2023-06-24T10:37:08;6.30;;;4.70;;
17842;SDS011;69286;48.222;16.332;2023-06-24T10:42:25;4.50;;;2.90;;
17842;SDS011;69286;48.222;16.332;2023-06-24T10:45:12;4.33;;;3.33;;
17842;SDS011;69286;48.222;16.332;2023-06-24T10:47:42;4.27;;;3.20;;
17842;SDS011;69286;48.222;16.332;2023-06-24T10:50:10;4.57;;;3.80;;
17842;SDS011;69286;48.222;16.332;2023-06-24T10:52:38;4.17;;;3.30;;
17842;SDS011;69286;48.222;16.332;2023-06-24T10:55:06;4.63;;;3.80;;
17842;SDS011;69286;48.222;16.332;2023-06-24T10:57:34;7.83;;;3.53;;
17842;SDS011;69286;48.222;16.332;2023-06-24T11:00:02;5.33;;;4.20;;
17842;SDS011;69286;48.222;16.332;2023-06-24T11:02:30;8.63;;;3.97;;
17842;SDS011;69286;48.222;16.332;2023-06-24T11:04:59;5.03;;;4.30;;
17842;SDS011;69286;48.222;16.332;2023-06-24T11:07:27;8.03;;;4.60;;
17842;SDS011;69286;48.222;16.332;2023-06-24T11:09:56;6.70;;;5.20;;
17842;SDS011;69286;48.222;16.332;2023-06-24T11:12:25;10.17;;;4.80;;
17842;SDS011;69286;48.222;16.332;2023-06-24T11:14:55;7.23;;;5.00;;
17842;SDS011;69286;48.222;16.332;2023-06-24T11:17:23;5.80;;;5.20;;
17842;SDS011;69286;48.222;16.332;2023-06-24T11:19:51;8.70;;;5.17;;
17842;SDS011;69286;48.222;16.332;2023-06-24T11:22:20;6.23;;;4.80;;
17842;SDS011;69286;48.222;16.332;2023-06-24T11:24:48;5.23;;;4.73;;
17842;SDS011;69286;48.222;16.332;2023-06-24T11:27:15;10.50;;;5.90;;
17842;SDS011;69286;48.222;16.332;2023-06-24T11:29:43;206.80;;;23.83;;
17842;SDS011;69286;48.222;16.332;2023-06-24T11:32:11;9.13;;;6.33;;
17842;SDS011;69286;48.222;16.332;2023-06-24T11:34:38;11.20;;;5.80;;
17842;SDS011;69286;48.222;16.332;2023-06-24T11:37:11;7.47;;;6.07;;
17842;SDS011;69286;48.222;16.332;2023-06-24T11:39:40;10.73;;;6.90;;
17842;SDS011;69286;48.222;16.332;2023-06-24T11:42:07;6.83;;;6.03;;
17842;SDS011;69286;48.222;16.332;2023-06-24T11:44:35;7.97;;;5.33;;
17842;SDS011;69286;48.222;16.332;2023-06-24T11:47:05;7.60;;;5.40;;
17842;SDS011;69286;48.222;16.332;2023-06-24T11:49:47;5.70;;;4.60;;
17842;SDS011;69286;48.222;16.332;2023-06-24T11:52:15;11.53;;;5.43;;
17842;SDS011;69286;48.222;16.332;2023-06-24T11:54:43;11.80;;;5.30;;
17842;SDS011;69286;48.222;16.332;2023-06-24T11:57:10;22.10;;;7.17;;
17842;SDS011;69286;48.222;16.332;2023-06-24T11:59:37;6.77;;;5.40;;
17842;SDS011;69286;48.222;16.332;2023-06-24T12:02:05;7.23;;;5.60;;
17842;SDS011;69286;48.222;16.332;2023-06-24T12:04:32;5.53;;;4.60;;
17842;SDS011;69286;48.222;16.332;2023-06-24T12:07:00;6.30;;;4.63;;
17842;SDS011;69286;48.222;16.332;2023-06-24T12:09:27;6.30;;;4.73;;
17842;SDS011;69286;48.222;16.332;2023-06-24T12:11:56;6.77;;;5.03;;
17842;SDS011;69286;48.222;16.332;2023-06-24T12:14:23;9.60;;;5.27;;
17842;SDS011;69286;48.222;16.332;2023-06-24T12:16:50;5.27;;;4.77;;
17842;SDS011;69286;48.222;16.332;2023-06-24T12:19:17;5.27;;;4.77;;
17842;SDS011;69286;48.222;16.332;2023-06-24T12:21:46;4.83;;;4.43;;
17842;SDS011;69286;48.222;16.332;2023-06-24T12:24:13;5.50;;;4.93;;
17842;SDS011;69286;48.222;16.332;2023-06-24T12:26:40;8.40;;;4.80;;
17842;SDS011;69286;48.222;16.332;2023-06-24T12:29:08;8.37;;;4.80;;
17842;SDS011;69286;48.222;16.332;2023-06-24T12:31:35;6.17;;;4.87;;
17842;SDS011;69286;48.222;16.332;2023-06-24T12:34:02;8.13;;;5.00;;
17842;SDS011;69286;48.222;16.332;2023-06-24T12:36:30;6.50;;;5.17;;
17842;SDS011;69286;48.222;16.332;2023-06-24T12:38:57;7.90;;;5.37;;
17842;SDS011;69286;48.222;16.332;2023-06-24T12:41:24;7.27;;;5.53;;
17842;SDS011;69286;48.222;16.332;2023-06-24T12:43:53;9.63;;;5.67;;
17842;SDS011;69286;48.222;16.332;2023-06-24T12:46:21;6.50;;;5.23;;
17842;SDS011;69286;48.222;16.332;2023-06-24T12:48:48;5.80;;;4.73;;
17842;SDS011;69286;48.222;16.332;2023-06-24T12:51:15;7.20;;;5.57;;
17842;SDS011;69286;48.222;16.332;2023-06-24T12:53:43;6.10;;;5.23;;
17842;SDS011;69286;48.222;16.332;2023-06-24T12:56:09;8.50;;;5.33;;
17842;SDS011;69286;48.222;16.332;2023-06-24T12:58:36;6.23;;;5.07;;
17842;SDS011;69286;48.222;16.332;2023-06-24T13:01:03;7.57;;;5.20;;
17842;SDS011;69286;48.222;16.332;2023-06-24T13:03:32;7.40;;;5.63;;
17842;SDS011;69286;48.222;16.332;2023-06-24T13:05:59;8.97;;;5.03;;
17842;SDS011;69286;48.222;16.332;2023-06-24T13:08:26;8.07;;;5.70;;
17842;SDS011;69286;48.222;16.332;2023-06-24T13:10:53;7.97;;;5.40;;
17842;SDS011;69286;48.222;16.332;2023-06-24T13:13:20;6.63;;;5.30;;
17842;SDS011;69286;48.222;16.332;2023-06-24T13:15:47;8.83;;;5.40;;
17842;SDS011;69286;48.222;16.332;2023-06-24T13:18:14;9.43;;;5.43;;
17842;SDS011;69286;48.222;16.332;2023-06-24T13:20:44;7.07;;;5.33;;
17842;SDS011;69286;48.222;16.332;2023-06-24T13:23:11;6.23;;;5.40;;
17842;SDS011;69286;48.222;16.332;2023-06-24T13:25:38;8.03;;;5.60;;
17842;SDS011;69286;48.222;16.332;2023-06-24T13:28:05;9.40;;;5.80;;
17842;SDS011;69286;48.222;16.332;2023-06-24T13:30:32;8.13;;;6.13;;
17842;SDS011;69286;48.222;16.332;2023-06-24T13:32:59;7.50;;;5.13;;
17842;SDS011;69286;48.222;16.332;2023-06-24T13:35:26;7.60;;;5.67;;
17842;SDS011;69286;48.222;16.332;2023-06-24T13:37:55;8.13;;;6.40;;
17842;SDS011;69286;48.222;16.332;2023-06-24T13:40:23;8.20;;;6.13;;
17842;SDS011;69286;48.222;16.332;2023-06-24T13:42:50;6.83;;;5.73;;
17842;SDS011;69286;48.222;16.332;2023-06-24T13:45:17;7.67;;;5.93;;
17842;SDS011;69286;48.222;16.332;2023-06-24T13:47:44;9.53;;;6.43;;
17842;SDS011;69286;48.222;16.332;2023-06-24T13:50:11;11.00;;;6.23;;
17842;SDS011;69286;48.222;16.332;2023-06-24T13:52:38;9.17;;;6.30;;
17842;SDS011;69286;48.222;16.332;2023-06-24T13:55:07;8.57;;;5.97;;
17842;SDS011;69286;48.222;16.332;2023-06-24T13:57:34;9.70;;;6.57;;
17842;SDS011;69286;48.222;16.332;2023-06-24T14:00:02;6.73;;;5.10;;
17842;SDS011;69286;48.222;16.332;2023-06-24T14:02:29;9.77;;;6.10;;
17842;SDS011;69286;48.222;16.332;2023-06-24T14:04:56;6.17;;;5.37;;
17842;SDS011;69286;48.222;16.332;2023-06-24T14:07:23;6.03;;;5.10;;
17842;SDS011;69286;48.222;16.332;2023-06-24T14:09:50;8.80;;;5.50;;
17842;SDS011;69286;48.222;16.332;2023-06-24T14:12:19;7.10;;;5.83;;
17842;SDS011;69286;48.222;16.332;2023-06-24T14:14:46;10.83;;;6.00;;
17842;SDS011;69286;48.222;16.332;2023-06-24T14:17:13;8.40;;;6.13;;
17842;SDS011;69286;48.222;16.332;2023-06-24T14:19:40;20.10;;;6.93;;
17842;SDS011;69286;48.222;16.332;2023-06-24T14:22:07;9.83;;;6.57;;
17842;SDS011;69286;48.222;16.332;2023-06-24T14:24:34;8.23;;;6.00;;
17842;SDS011;69286;48.222;16.332;2023-06-24T14:27:03;7.33;;;6.00;;
17842;SDS011;69286;48.222;16.332;2023-06-24T14:29:32;7.97;;;5.57;;
17842;SDS011;69286;48.222;16.332;2023-06-24T14:31:59;8.00;;;5.80;;
17842;SDS011;69286;48.222;16.332;2023-06-24T14:34:26;8.30;;;5.70;;
17842;SDS011;69286;48.222;16.332;2023-06-24T14:36:54;9.40;;;5.67;;
17842;SDS011;69286;48.222;16.332;2023-06-24T14:39:21;10.03;;;6.30;;
17842;SDS011;69286;48.222;16.332;2023-06-24T14:41:49;7.63;;;5.67;;
17842;SDS011;69286;48.222;16.332;2023-06-24T14:44:16;12.47;;;5.93;;